createdAt,value
2017-08-01T00:01:24.161Z,7.60
2017-08-01T00:03:51.641Z,7.37
2017-08-01T00:06:19.096Z,8.20
2017-08-01T00:08:46.561Z,7.93
2017-08-01T00:11:14.041Z,8.00
2017-08-01T00:13:41.518Z,7.90
2017-08-01T00:16:09.014Z,8.07
2017-08-01T00:18:36.492Z,7.50
2017-08-01T00:21:04.010Z,7.70
2017-08-01T00:23:31.533Z,7.50
2017-08-01T00:25:59.115Z,7.80
2017-08-01T00:28:26.598Z,7.80
2017-08-01T00:30:54.109Z,7.70
2017-08-01T00:33:21.614Z,7.60
2017-08-01T00:35:49.853Z,7.37
2017-08-01T00:38:17.345Z,7.20
2017-08-01T00:40:44.834Z,6.80
2017-08-01T00:43:12.323Z,6.87
2017-08-01T00:45:39.791Z,6.90
2017-08-01T00:48:07.314Z,6.37
2017-08-01T00:50:34.803Z,5.00
2017-08-01T00:53:02.258Z,3.33
2017-08-01T00:55:29.750Z,3.23
2017-08-01T00:57:57.258Z,3.03
2017-08-01T01:00:24.875Z,2.63
2017-08-01T01:02:52.325Z,2.90
2017-08-01T01:05:19.782Z,2.73
2017-08-01T01:07:47.262Z,2.40
2017-08-01T01:10:14.767Z,2.40
2017-08-01T01:12:42.221Z,2.50
2017-08-01T01:15:09.710Z,2.60
2017-08-01T01:17:37.175Z,2.30
2017-08-01T01:20:05.331Z,2.60
2017-08-01T01:22:32.814Z,2.57
2017-08-01T01:25:00.337Z,2.40
2017-08-01T01:27:27.814Z,2.53
2017-08-01T01:29:55.282Z,2.90
2017-08-01T01:32:22.784Z,2.53
2017-08-01T01:34:50.363Z,2.60
2017-08-01T01:37:17.840Z,2.60
2017-08-01T01:39:45.327Z,2.47
2017-08-01T01:42:12.783Z,2.80
2017-08-01T01:44:40.265Z,2.40
2017-08-01T01:47:07.737Z,2.70
2017-08-01T01:49:35.228Z,3.23
2017-08-01T01:52:02.686Z,3.00
2017-08-01T01:54:30.162Z,2.83
2017-08-01T01:56:57.626Z,3.10
2017-08-01T01:59:25.093Z,3.10
2017-08-01T02:01:52.555Z,3.00
2017-08-01T02:04:20.183Z,2.57
2017-08-01T02:06:47.666Z,2.77
2017-08-01T02:09:15.127Z,3.13
2017-08-01T02:11:42.616Z,3.00
2017-08-01T02:14:10.070Z,2.97
2017-08-01T02:16:37.564Z,2.90
2017-08-01T02:19:05.036Z,2.80
2017-08-01T02:21:34.126Z,2.80
2017-08-01T02:24:01.580Z,2.70
2017-08-01T02:26:29.061Z,3.00
2017-08-01T02:28:56.535Z,2.80
2017-08-01T02:31:24.201Z,2.40
2017-08-01T02:33:51.742Z,2.60
2017-08-01T02:36:19.218Z,2.67
2017-08-01T02:38:46.726Z,2.67
2017-08-01T02:41:14.198Z,2.57
2017-08-01T02:43:41.681Z,2.80
2017-08-01T02:46:09.180Z,3.27
2017-08-01T02:48:36.665Z,2.73
2017-08-01T02:51:04.117Z,3.20
2017-08-01T02:53:31.611Z,3.47
2017-08-01T02:55:59.093Z,2.50
2017-08-01T02:58:26.598Z,3.00
2017-08-01T03:00:54.062Z,3.10
2017-08-01T03:03:21.598Z,2.80
2017-08-01T03:05:49.345Z,3.20
2017-08-01T03:08:16.835Z,3.10
2017-08-01T03:10:44.362Z,3.20
2017-08-01T03:13:11.817Z,3.03
2017-08-01T03:15:39.307Z,3.30
2017-08-01T03:18:06.766Z,3.07
2017-08-01T03:20:34.317Z,2.80
2017-08-01T03:23:01.781Z,3.27
2017-08-01T03:25:29.280Z,2.67
2017-08-01T03:27:56.748Z,2.83
2017-08-01T03:30:24.276Z,3.03
2017-08-01T03:32:51.735Z,3.30
2017-08-01T03:35:19.194Z,3.10
2017-08-01T03:37:46.699Z,2.97
2017-08-01T03:40:14.159Z,3.10
2017-08-01T03:42:42.511Z,3.40
2017-08-01T03:45:10.011Z,3.40
2017-08-01T03:47:37.506Z,3.00
2017-08-01T03:50:04.958Z,3.30
2017-08-01T03:52:32.440Z,4.00
2017-08-01T03:54:59.888Z,3.40
2017-08-01T03:57:27.390Z,3.80
2017-08-01T03:59:54.871Z,3.53
2017-08-01T04:02:22.327Z,3.77
2017-08-01T04:04:49.869Z,3.40
2017-08-01T04:07:17.331Z,2.90
2017-08-01T04:09:44.814Z,3.67
2017-08-01T04:12:12.296Z,3.73
2017-08-01T04:14:40.490Z,3.70
2017-08-01T04:17:07.982Z,3.73
2017-08-01T04:19:35.704Z,3.23
2017-08-01T04:22:03.165Z,4.00
2017-08-01T04:24:30.681Z,3.47
2017-08-01T04:26:58.190Z,3.67
2017-08-01T04:29:25.640Z,3.63
2017-08-01T04:31:53.125Z,4.57
2017-08-01T04:34:20.600Z,3.50
2017-08-01T04:36:48.077Z,3.70
2017-08-01T04:39:15.542Z,3.80
2017-08-01T04:41:43.034Z,3.73
2017-08-01T04:44:10.491Z,4.40
2017-08-01T04:46:38.095Z,4.23
2017-08-01T04:49:05.545Z,3.70
2017-08-01T04:51:33.017Z,3.93
2017-08-01T04:54:00.508Z,3.87
2017-08-01T04:56:28.391Z,3.73
2017-08-01T04:58:55.986Z,3.60
2017-08-01T05:01:23.455Z,3.70
2017-08-01T05:03:50.992Z,3.70
2017-08-01T05:06:18.478Z,4.00
2017-08-01T05:08:45.984Z,4.03
2017-08-01T05:11:13.977Z,3.87
2017-08-01T05:13:41.481Z,3.60
2017-08-01T05:16:08.966Z,4.00
2017-08-01T05:18:36.422Z,3.97
2017-08-01T05:21:04.440Z,4.17
2017-08-01T05:23:31.951Z,4.00
2017-08-01T05:25:59.455Z,3.67
2017-08-01T05:28:26.912Z,3.83
2017-08-01T05:30:54.368Z,5.10
2017-08-01T05:33:21.848Z,4.10
2017-08-01T05:35:49.465Z,4.60
2017-08-01T05:38:16.917Z,6.50
2017-08-01T05:40:44.437Z,4.40
2017-08-01T05:43:11.980Z,3.93
2017-08-01T05:45:39.441Z,3.93
2017-08-01T05:48:07.001Z,4.30
2017-08-01T05:50:34.458Z,3.83
2017-08-01T05:53:02.113Z,6.63
2017-08-01T05:55:29.633Z,3.63
2017-08-01T05:57:57.886Z,3.90
2017-08-01T06:00:26.062Z,3.63
2017-08-01T06:02:53.544Z,3.30
2017-08-01T06:05:20.988Z,3.10
2017-08-01T06:07:48.567Z,3.70
2017-08-01T06:10:16.133Z,3.50
2017-08-01T06:12:43.589Z,3.70
2017-08-01T06:15:11.150Z,3.30
2017-08-01T06:17:39.225Z,3.90
2017-08-01T06:20:06.757Z,3.63
2017-08-01T06:22:34.209Z,3.87
2017-08-01T06:25:01.864Z,3.10
2017-08-01T06:27:29.351Z,3.70
2017-08-01T06:29:56.855Z,4.20
2017-08-01T06:32:24.358Z,4.70
2017-08-01T06:34:51.826Z,3.10
2017-08-01T06:37:19.375Z,3.53
2017-08-01T06:39:47.856Z,3.27
2017-08-01T06:42:15.328Z,4.27
2017-08-01T06:44:42.824Z,3.80
2017-08-01T06:47:10.286Z,4.00
2017-08-01T06:49:37.771Z,3.87
2017-08-01T06:52:05.258Z,3.17
2017-08-01T06:54:32.726Z,4.30
2017-08-01T06:57:00.252Z,4.60
2017-08-01T06:59:28.671Z,3.70
2017-08-01T07:01:56.152Z,3.77
2017-08-01T07:04:23.629Z,3.70
2017-08-01T07:06:51.090Z,3.80
2017-08-01T07:09:18.639Z,4.10
2017-08-01T07:11:46.095Z,4.77
2017-08-01T07:14:13.541Z,4.50
2017-08-01T07:16:41.021Z,4.20
2017-08-01T07:19:08.490Z,4.07
2017-08-01T07:21:35.983Z,5.47
2017-08-01T07:24:03.500Z,4.37
2017-08-01T07:26:31.022Z,4.00
2017-08-01T07:28:58.486Z,7.10
2017-08-01T07:31:26.852Z,3.80
2017-08-01T07:33:54.342Z,5.20
2017-08-01T07:36:21.894Z,5.50
2017-08-01T07:38:49.471Z,4.00
2017-08-01T07:41:17.100Z,5.90
2017-08-01T07:43:44.586Z,3.30
2017-08-01T07:46:12.049Z,3.90
2017-08-01T07:48:39.906Z,3.90
2017-08-01T07:51:07.367Z,4.07
2017-08-01T07:53:34.897Z,3.63
2017-08-01T07:56:02.376Z,4.20
2017-08-01T07:58:29.883Z,4.30
2017-08-01T08:00:58.091Z,5.70
2017-08-01T08:03:25.595Z,4.63
2017-08-01T08:05:53.099Z,5.47
2017-08-01T08:08:20.556Z,3.67
2017-08-01T08:10:48.153Z,3.70
2017-08-01T08:13:15.645Z,5.20
2017-08-01T08:15:43.227Z,4.90
2017-08-01T08:18:11.485Z,3.70
2017-08-01T08:20:38.986Z,5.10
2017-08-01T08:23:06.443Z,7.30
2017-08-01T08:25:34.262Z,4.10
2017-08-01T08:28:01.741Z,5.00
2017-08-01T08:30:29.225Z,4.60
2017-08-01T08:32:56.755Z,3.93
2017-08-01T08:35:24.420Z,4.33
2017-08-01T08:37:51.922Z,3.67
2017-08-01T08:40:19.426Z,3.90
2017-08-01T08:42:47.769Z,3.60
2017-08-01T08:45:16.261Z,4.77
2017-08-01T08:47:44.414Z,5.07
2017-08-01T08:50:12.553Z,4.33
2017-08-01T08:52:40.022Z,6.63
2017-08-01T08:55:07.545Z,3.93
2017-08-01T08:57:35.039Z,3.83
2017-08-01T09:00:02.628Z,4.00
2017-08-01T09:02:30.325Z,4.00
2017-08-01T09:04:57.802Z,3.63
2017-08-01T09:07:25.994Z,4.37
2017-08-01T09:09:53.456Z,3.67
2017-08-01T09:12:21.004Z,3.67
2017-08-01T09:14:49.018Z,3.50
2017-08-01T09:17:16.510Z,4.00
2017-08-01T09:19:43.962Z,4.60
2017-08-01T09:22:11.698Z,4.87
2017-08-01T09:24:40.408Z,4.43
2017-08-01T09:27:07.881Z,4.43
2017-08-01T09:29:35.387Z,3.73
2017-08-01T09:32:02.879Z,4.30
2017-08-01T09:34:30.385Z,5.57
2017-08-01T09:36:57.889Z,4.17
2017-08-01T09:39:25.364Z,4.17
2017-08-01T09:41:54.502Z,3.67
2017-08-01T09:44:22.377Z,3.83
2017-08-01T09:46:49.878Z,3.63
2017-08-01T09:49:17.415Z,5.67
2017-08-01T09:51:44.879Z,3.80
2017-08-01T09:54:12.382Z,6.20
2017-08-01T09:56:40.026Z,4.37
2017-08-01T09:59:08.280Z,3.43
2017-08-01T10:01:36.710Z,4.37
2017-08-01T10:04:04.543Z,3.53
2017-08-01T10:06:32.027Z,4.50
2017-08-01T10:08:59.509Z,4.83
2017-08-01T10:11:26.985Z,4.00
2017-08-01T10:13:54.481Z,4.07
2017-08-01T10:16:22.414Z,3.80
2017-08-01T10:18:50.460Z,3.70
2017-08-01T10:21:18.019Z,5.33
2017-08-01T10:23:45.491Z,5.13
2017-08-01T10:26:12.998Z,4.87
2017-08-01T10:28:40.816Z,4.30
2017-08-01T10:31:08.349Z,4.23
2017-08-01T10:33:35.858Z,5.27
2017-08-01T10:36:03.493Z,6.30
2017-08-01T10:38:30.959Z,5.30
2017-08-01T10:41:00.222Z,4.87
2017-08-01T10:43:28.842Z,4.57
2017-08-01T10:45:56.297Z,5.03
2017-08-01T10:48:24.673Z,4.30
2017-08-01T10:50:52.141Z,5.40
2017-08-01T10:53:20.542Z,4.20
2017-08-01T10:55:48.850Z,3.97
2017-08-01T10:58:16.325Z,3.53
2017-08-01T11:00:44.931Z,3.60
2017-08-01T11:03:12.875Z,3.37
2017-08-01T11:05:41.149Z,3.87
2017-08-01T11:08:08.666Z,4.00
2017-08-01T11:10:36.156Z,4.10
2017-08-01T11:13:04.628Z,3.90
2017-08-01T11:15:32.141Z,3.93
2017-08-01T11:17:59.605Z,3.53
2017-08-01T11:20:29.622Z,3.87
2017-08-01T11:22:57.998Z,3.53
2017-08-01T11:25:26.526Z,4.17
2017-08-01T11:27:54.018Z,4.07
2017-08-01T11:30:21.564Z,4.20
2017-08-01T11:32:49.541Z,4.00
2017-08-01T11:35:18.019Z,4.30
2017-08-01T11:37:46.201Z,4.10
2017-08-01T11:40:13.645Z,4.10
2017-08-01T11:42:41.706Z,4.17
2017-08-01T11:45:10.100Z,3.73
2017-08-01T11:47:37.617Z,4.03
2017-08-01T11:50:05.079Z,5.40
2017-08-01T11:52:32.721Z,3.60
2017-08-01T11:55:00.729Z,2.83
2017-08-01T11:57:28.186Z,2.93
2017-08-01T11:59:55.687Z,2.90
2017-08-01T12:02:23.984Z,3.57
2017-08-01T12:04:51.474Z,3.60
2017-08-01T12:07:19.284Z,2.80
2017-08-01T12:09:46.958Z,2.30
2017-08-01T12:12:14.501Z,2.63
2017-08-01T12:14:43.473Z,2.63
2017-08-01T12:17:10.962Z,2.70
2017-08-01T12:19:39.482Z,2.40
2017-08-01T12:22:07.563Z,2.33
2017-08-01T12:24:35.042Z,3.13
2017-08-01T12:27:02.555Z,2.50
2017-08-01T12:29:30.022Z,2.60
2017-08-01T12:31:57.540Z,3.17
2017-08-01T12:34:25.454Z,3.00
2017-08-01T12:36:52.964Z,2.80
2017-08-01T12:39:20.434Z,4.37
2017-08-01T12:41:48.244Z,3.00
2017-08-01T12:44:15.699Z,3.23
2017-08-01T12:46:43.214Z,2.97
2017-08-01T12:49:10.696Z,3.70
2017-08-01T12:51:38.171Z,3.30
2017-08-01T12:54:06.241Z,2.97
2017-08-01T12:56:33.701Z,2.90
2017-08-01T12:59:01.201Z,3.13
2017-08-01T13:01:28.668Z,3.20
2017-08-01T13:03:56.281Z,3.10
2017-08-01T13:06:24.039Z,3.80
2017-08-01T13:08:51.514Z,3.80
2017-08-01T13:11:19.005Z,3.50
2017-08-01T13:13:46.463Z,3.73
2017-08-01T13:16:14.008Z,3.60
2017-08-01T13:18:41.474Z,3.53
2017-08-01T13:21:09.735Z,3.30
2017-08-01T13:23:37.227Z,3.10
2017-08-01T13:26:04.793Z,3.23
2017-08-01T13:28:32.291Z,4.33
2017-08-01T13:30:59.748Z,3.40
2017-08-01T13:33:27.210Z,3.57
2017-08-01T13:35:54.923Z,3.90
2017-08-01T13:38:22.518Z,3.43
2017-08-01T13:40:49.980Z,3.37
2017-08-01T13:43:17.495Z,3.83
2017-08-01T13:45:44.997Z,3.60
2017-08-01T13:48:12.668Z,4.60
2017-08-01T13:50:40.167Z,3.60
2017-08-01T13:53:07.672Z,3.90
2017-08-01T13:55:35.166Z,4.90
2017-08-01T13:58:02.713Z,3.90
2017-08-01T14:00:30.234Z,4.00
2017-08-01T14:02:57.692Z,4.00
2017-08-01T14:05:25.308Z,3.17
2017-08-01T14:07:52.754Z,4.13
2017-08-01T14:10:21.282Z,4.00
2017-08-01T14:12:48.765Z,4.10
2017-08-01T14:15:16.936Z,3.50
2017-08-01T14:17:45.314Z,4.00
2017-08-01T14:20:12.771Z,3.73
2017-08-01T14:22:40.320Z,3.27
2017-08-01T14:25:07.836Z,3.23
2017-08-01T14:27:35.509Z,3.67
2017-08-01T14:30:02.997Z,3.87
2017-08-01T14:32:30.698Z,3.23
2017-08-01T14:34:58.162Z,3.57
2017-08-01T14:37:25.651Z,3.20
2017-08-01T14:39:54.230Z,3.73
2017-08-01T14:42:21.728Z,3.20
2017-08-01T14:44:49.263Z,3.73
2017-08-01T14:47:16.721Z,3.80
2017-08-01T14:49:44.206Z,3.70
2017-08-01T14:52:11.661Z,3.80
2017-08-01T14:54:39.166Z,3.20
2017-08-01T14:57:07.623Z,3.60
2017-08-01T14:59:35.592Z,6.73
2017-08-01T15:02:03.201Z,3.50
2017-08-01T15:04:30.686Z,3.63
2017-08-01T15:06:58.208Z,2.93
2017-08-01T15:09:26.024Z,3.40
2017-08-01T15:11:53.590Z,3.20
2017-08-01T15:14:21.168Z,4.10
2017-08-01T15:16:49.028Z,3.47
2017-08-01T15:19:16.485Z,3.40
2017-08-01T15:21:43.978Z,3.47
2017-08-01T15:24:11.540Z,4.07
2017-08-01T15:26:39.014Z,3.20
2017-08-01T15:29:06.506Z,4.13
2017-08-01T15:31:34.082Z,3.73
2017-08-01T15:34:02.371Z,4.00
2017-08-01T15:36:30.638Z,3.73
2017-08-01T15:38:58.134Z,3.27
2017-08-01T15:41:25.610Z,3.70
2017-08-01T15:43:53.235Z,3.73
2017-08-01T15:46:21.468Z,3.90
2017-08-01T15:48:48.974Z,3.93
2017-08-01T15:51:17.245Z,3.63
2017-08-01T15:53:44.698Z,4.10
2017-08-01T15:56:12.173Z,4.30
2017-08-01T15:58:39.630Z,4.10
2017-08-01T16:07:42.169Z,5.43
2017-08-01T16:10:09.719Z,4.27
2017-08-01T16:12:38.056Z,3.63
2017-08-01T16:17:42.118Z,3.93
2017-08-01T16:20:10.281Z,4.07
2017-08-01T16:22:37.757Z,4.10
2017-08-01T16:25:05.306Z,3.80
2017-08-01T16:27:33.654Z,4.10
2017-08-01T16:30:01.172Z,3.90
2017-08-01T16:32:28.628Z,4.13
2017-08-01T16:34:56.089Z,4.10
2017-08-01T16:37:23.984Z,3.70
2017-08-01T16:39:51.442Z,3.80
2017-08-01T16:42:19.909Z,3.50
2017-08-01T16:44:47.370Z,4.40
2017-08-01T16:47:14.844Z,4.23
2017-08-01T16:49:42.691Z,4.10
2017-08-01T16:52:11.065Z,3.93
2017-08-01T16:54:38.525Z,3.77
2017-08-01T16:57:06.809Z,4.00
2017-08-01T16:59:34.271Z,3.80
2017-08-01T17:02:01.727Z,4.27
2017-08-01T17:04:29.382Z,4.30
2017-08-01T17:06:57.642Z,4.10
2017-08-01T17:09:25.139Z,3.90
2017-08-01T17:11:52.625Z,3.87
2017-08-01T17:14:20.332Z,4.53
2017-08-01T17:16:48.623Z,4.33
2017-08-01T17:19:16.121Z,3.70
2017-08-01T17:21:43.579Z,3.70
2017-08-01T17:24:11.404Z,4.20
2017-08-01T17:26:38.870Z,4.07
2017-08-01T17:29:06.322Z,4.10
2017-08-01T17:31:33.788Z,3.57
2017-08-01T17:34:01.260Z,4.10
2017-08-01T17:36:28.756Z,4.10
2017-08-01T17:38:56.257Z,4.00
2017-08-01T17:41:23.774Z,4.30
2017-08-01T17:43:51.233Z,4.57
2017-08-01T17:46:18.705Z,4.80
2017-08-01T17:48:46.212Z,3.70
2017-08-01T17:51:13.825Z,5.00
2017-08-01T17:53:41.317Z,5.27
2017-08-01T17:56:08.761Z,4.50
2017-08-01T17:58:37.062Z,5.20
2017-08-01T18:01:04.534Z,4.10
2017-08-01T18:03:33.378Z,4.43
2017-08-01T18:06:01.543Z,4.90
2017-08-01T18:08:29.061Z,5.23
2017-08-01T18:11:02.195Z,4.10
2017-08-01T18:13:29.849Z,4.70
2017-08-01T18:15:57.318Z,4.13
2017-08-01T18:18:24.794Z,4.53
2017-08-01T18:20:52.311Z,4.43
2017-08-01T18:23:19.781Z,4.40
2017-08-01T18:25:47.263Z,4.73
2017-08-01T18:28:15.115Z,4.50
2017-08-01T18:30:42.639Z,4.37
2017-08-01T18:33:10.130Z,4.87
2017-08-01T18:35:38.115Z,5.60
2017-08-01T18:38:05.585Z,4.60
2017-08-01T18:40:33.076Z,5.73
2017-08-01T18:43:00.565Z,4.57
2017-08-01T18:45:28.093Z,4.33
2017-08-01T18:47:55.564Z,4.33
2017-08-01T18:50:23.042Z,4.50
2017-08-01T18:52:50.667Z,4.70
2017-08-01T18:55:18.129Z,4.40
2017-08-01T18:57:45.629Z,4.10
2017-08-01T19:00:13.099Z,4.27
2017-08-01T19:02:40.599Z,4.40
2017-08-01T19:05:08.056Z,4.80
2017-08-01T19:07:35.696Z,4.07
2017-08-01T19:10:03.164Z,3.70
2017-08-01T19:12:30.637Z,3.70
2017-08-01T19:14:58.139Z,4.30
2017-08-01T19:17:25.616Z,4.30
2017-08-01T19:19:53.582Z,4.43
2017-08-01T19:22:21.092Z,4.70
2017-08-01T19:24:48.900Z,6.80
2017-08-01T19:27:16.428Z,6.50
2017-08-01T19:29:44.259Z,5.80
2017-08-01T19:32:11.752Z,5.53
2017-08-01T19:34:39.379Z,5.47
2017-08-01T19:37:06.852Z,5.63
2017-08-01T19:39:34.410Z,4.93
2017-08-01T19:42:01.914Z,4.90
2017-08-01T19:44:29.421Z,4.93
2017-08-01T19:46:56.921Z,5.20
2017-08-01T19:49:24.437Z,5.37
2017-08-01T19:51:51.924Z,4.97
2017-08-01T19:54:19.433Z,5.10
2017-08-01T19:56:46.946Z,5.40
2017-08-01T19:59:14.430Z,5.87
2017-08-01T20:01:41.952Z,5.70
2017-08-01T20:04:09.438Z,6.30
2017-08-01T20:06:36.903Z,5.07
2017-08-01T20:09:04.435Z,5.53
2017-08-01T20:11:31.929Z,4.97
2017-08-01T20:13:59.465Z,5.47
2017-08-01T20:16:26.930Z,4.70
2017-08-01T20:18:54.510Z,6.77
2017-08-01T20:21:22.701Z,5.50
2017-08-01T20:23:50.613Z,5.30
2017-08-01T20:26:18.128Z,5.60
2017-08-01T20:28:45.582Z,5.60
2017-08-01T20:31:13.089Z,4.57
2017-08-01T20:33:40.581Z,4.40
2017-08-01T20:36:08.087Z,5.60
2017-08-01T20:38:36.416Z,4.27
2017-08-01T20:41:04.029Z,4.63
2017-08-01T20:43:31.490Z,4.90
2017-08-01T20:45:58.947Z,4.80
2017-08-01T20:48:26.471Z,5.00
2017-08-01T20:50:54.854Z,5.20
2017-08-01T20:53:23.097Z,5.23
2017-08-01T20:55:50.571Z,4.87
2017-08-01T20:58:18.049Z,4.73
2017-08-01T21:00:45.533Z,5.30
2017-08-01T21:03:13.030Z,5.03
2017-08-01T21:05:40.498Z,5.17
2017-08-01T21:08:08.112Z,5.10
2017-08-01T21:10:35.605Z,4.93
2017-08-01T21:13:03.074Z,4.80
2017-08-01T21:15:30.591Z,6.77
2017-08-01T21:17:58.055Z,5.13
2017-08-01T21:20:25.510Z,5.80
2017-08-01T21:22:53.038Z,6.10
2017-08-01T21:25:20.582Z,4.90
2017-08-01T21:27:48.043Z,5.30
2017-08-01T21:30:15.647Z,5.20
2017-08-01T21:32:43.111Z,6.37
2017-08-01T21:35:10.580Z,5.77
2017-08-01T21:37:38.072Z,5.33
2017-08-01T21:40:05.535Z,5.30
2017-08-01T21:42:33.009Z,5.20
2017-08-01T21:45:00.490Z,5.47
2017-08-01T21:47:27.979Z,5.20
2017-08-01T21:49:55.435Z,5.40
2017-08-01T21:52:22.922Z,6.03
2017-08-01T21:54:50.386Z,5.57
2017-08-01T21:57:18.011Z,5.57
2017-08-01T21:59:45.512Z,6.37
2017-08-01T22:02:12.971Z,5.87
2017-08-01T22:04:40.502Z,5.80
2017-08-01T22:07:08.013Z,6.53
2017-08-01T22:09:35.552Z,5.90
2017-08-01T22:12:03.046Z,6.30
2017-08-01T22:14:30.637Z,5.73
2017-08-01T22:16:58.091Z,4.80
2017-08-01T22:19:25.559Z,5.17
2017-08-01T22:21:53.054Z,5.23
2017-08-01T22:24:20.514Z,4.33
2017-08-01T22:26:48.000Z,5.00
2017-08-01T22:29:15.457Z,4.73
2017-08-01T22:31:42.942Z,4.73
2017-08-01T22:34:10.389Z,4.83
2017-08-01T22:36:38.419Z,5.10
2017-08-01T22:39:05.868Z,4.43
2017-08-01T22:41:33.349Z,4.63
2017-08-01T22:44:00.837Z,4.57
2017-08-01T22:46:28.293Z,5.00
2017-08-01T22:48:55.778Z,4.83
2017-08-01T22:51:23.282Z,5.40
2017-08-01T22:53:50.851Z,5.20
2017-08-01T22:56:18.319Z,5.60
2017-08-01T22:58:46.808Z,5.60
2017-08-01T23:01:14.275Z,5.83
2017-08-01T23:03:41.750Z,5.30
2017-08-01T23:06:09.273Z,5.57
2017-08-01T23:08:36.734Z,5.40
2017-08-01T23:11:04.206Z,5.60
2017-08-01T23:13:31.694Z,5.70
2017-08-01T23:15:59.205Z,5.83
2017-08-01T23:18:26.693Z,5.80
2017-08-01T23:20:54.206Z,5.90
2017-08-01T23:23:21.968Z,6.00
2017-08-01T23:25:49.550Z,5.77
2017-08-01T23:28:17.018Z,5.87
2017-08-01T23:30:44.493Z,5.83
2017-08-01T23:33:11.997Z,5.70
2017-08-01T23:35:39.470Z,6.03
2017-08-01T23:38:06.967Z,6.13
2017-08-01T23:40:34.423Z,6.27
2017-08-01T23:43:01.943Z,6.13
2017-08-01T23:45:29.970Z,6.30
2017-08-01T23:47:58.238Z,5.80
2017-08-01T23:50:25.695Z,5.70
2017-08-01T23:52:53.194Z,5.80
2017-08-01T23:55:20.673Z,5.40
2017-08-01T23:57:48.495Z,5.60
